createdAt,value
2022-11-22T00:00:25.342Z,2.95
2022-11-22T00:02:52.364Z,3.55
2022-11-22T00:05:19.530Z,3.88
2022-11-22T00:07:46.365Z,3.97
2022-11-22T00:10:14.252Z,3.78
2022-11-22T00:12:40.995Z,3.90
2022-11-22T00:15:08.052Z,3.15
2022-11-22T00:17:35.357Z,3.80
2022-11-22T00:20:01.989Z,3.55
2022-11-22T00:22:28.548Z,4.43
2022-11-22T00:24:55.152Z,3.28
2022-11-22T00:27:21.683Z,4.93
2022-11-22T00:29:48.197Z,4.88
2022-11-22T00:32:14.770Z,5.90
2022-11-22T00:34:41.342Z,6.20
2022-11-22T00:37:08.076Z,6.20
2022-11-22T00:39:35.117Z,5.75
2022-11-22T00:42:01.838Z,6.03
2022-11-22T00:44:28.377Z,5.78
2022-11-22T00:46:55.214Z,5.18
2022-11-22T00:49:21.836Z,5.07
2022-11-22T00:51:48.402Z,4.63
2022-11-22T00:54:15.123Z,5.05
2022-11-22T00:56:41.688Z,6.07
2022-11-22T00:59:08.249Z,6.50
2022-11-22T01:01:34.923Z,5.45
2022-11-22T01:04:01.526Z,6.65
2022-11-22T01:06:28.055Z,5.45
2022-11-22T01:08:54.723Z,6.97
2022-11-22T01:11:21.302Z,6.65
2022-11-22T01:13:47.843Z,6.53
2022-11-22T01:16:15.196Z,5.38
2022-11-22T01:18:42.367Z,5.50
2022-11-22T01:21:09.051Z,7.57
2022-11-22T01:23:36.223Z,6.72
2022-11-22T01:26:03.347Z,6.30
2022-11-22T01:28:29.926Z,6.50
2022-11-22T01:30:56.545Z,7.80
2022-11-22T01:33:23.113Z,8.25
2022-11-22T01:35:49.639Z,7.85
2022-11-22T01:38:16.234Z,6.97
2022-11-22T01:40:42.877Z,6.75
2022-11-22T01:43:21.727Z,7.93
2022-11-22T01:45:53.320Z,6.60
2022-11-22T01:48:38.014Z,6.07
2022-11-22T01:51:39.417Z,6.00
2022-11-22T01:54:11.554Z,7.45
2022-11-22T06:51:25.934Z,7.78
2022-11-22T06:53:55.353Z,9.70
2022-11-22T06:56:23.227Z,8.48
2022-11-22T06:58:51.651Z,10.38
2022-11-22T07:01:27.315Z,11.40
2022-11-22T07:03:58.053Z,9.82
2022-11-22T07:06:27.576Z,9.07
2022-11-22T07:08:54.745Z,9.35
2022-11-22T07:11:28.057Z,10.20
2022-11-22T07:13:58.105Z,8.65
2022-11-22T07:16:27.063Z,8.95
2022-11-22T07:18:53.796Z,8.13
2022-11-22T07:21:22.963Z,10.52
2022-11-22T07:23:52.024Z,9.70
2022-11-22T07:26:20.004Z,11.43
2022-11-22T07:28:46.792Z,10.57
2022-11-22T07:31:14.731Z,8.80
2022-11-22T07:33:42.704Z,10.10
2022-11-22T07:36:10.447Z,9.30
2022-11-22T07:38:37.499Z,9.10
2022-11-22T07:41:05.188Z,9.25
2022-11-22T07:43:32.260Z,10.35
2022-11-22T07:46:23.444Z,8.77
2022-11-22T07:48:50.549Z,9.05
2022-11-22T07:51:17.595Z,9.40
2022-11-22T07:53:44.194Z,7.30
2022-11-22T07:56:11.101Z,11.10
2022-11-22T07:58:37.721Z,10.68
2022-11-22T08:01:09.986Z,8.32
2022-11-22T08:03:37.139Z,9.55
2022-11-22T08:06:05.881Z,7.72
2022-11-22T08:08:32.571Z,7.13
2022-11-22T08:10:59.223Z,8.10
2022-11-22T08:13:25.884Z,7.20
2022-11-22T08:15:54.681Z,7.68
2022-11-22T08:18:22.217Z,7.88
2022-11-22T08:20:48.774Z,9.57
2022-11-22T08:23:15.423Z,10.32
2022-11-22T08:25:41.974Z,8.15
2022-11-22T08:28:08.537Z,9.55
2022-11-22T08:30:37.194Z,8.38
2022-11-22T08:33:03.754Z,8.77
2022-11-22T08:35:30.281Z,7.18
2022-11-22T08:37:57.645Z,8.55
2022-11-22T08:40:24.462Z,7.60
2022-11-22T08:42:54.527Z,9.00
2022-11-22T08:45:21.089Z,9.88
2022-11-22T08:47:48.986Z,7.30
2022-11-22T08:50:17.222Z,6.72
2022-11-22T08:52:43.846Z,8.90
2022-11-22T08:55:10.379Z,7.30
2022-11-22T08:57:36.921Z,7.82
2022-11-22T09:00:05.311Z,6.70
2022-11-22T09:02:31.904Z,7.43
2022-11-22T09:04:58.461Z,8.07
2022-11-22T09:10:11.682Z,6.80
2022-11-22T09:12:38.240Z,6.55
2022-11-22T09:15:05.259Z,9.18
2022-11-22T09:17:31.792Z,8.93
2022-11-22T09:19:58.358Z,6.82
2022-11-22T09:22:28.400Z,7.80
2022-11-22T09:24:55.278Z,8.88
2022-11-22T09:27:21.838Z,9.02
2022-11-22T09:29:48.386Z,9.73
2022-11-22T09:32:15.102Z,8.13
2022-11-22T09:34:41.906Z,8.00
2022-11-22T09:37:08.454Z,6.15
2022-11-22T09:39:35.098Z,7.00
2022-11-22T09:42:30.748Z,7.65
2022-11-22T09:45:25.298Z,5.57
2022-11-22T09:48:09.407Z,7.10
2022-11-22T09:50:59.931Z,6.72
2022-11-22T09:53:36.229Z,6.40
2022-11-22T09:56:09.380Z,6.65
2022-11-22T09:58:51.641Z,6.72
2022-11-22T10:01:29.501Z,6.80
2022-11-22T10:04:22.318Z,6.20
2022-11-22T10:07:18.609Z,6.75
2022-11-22T10:10:13.115Z,7.35
2022-11-22T10:12:53.008Z,7.47
2022-11-22T10:15:49.526Z,8.70
2022-11-22T10:18:41.193Z,8.80
2022-11-22T14:26:56.194Z,13.68
2022-11-22T14:29:41.236Z,12.25
2022-11-22T14:32:19.379Z,12.02
2022-11-22T14:35:04.198Z,10.70
2022-11-22T14:37:33.843Z,12.00
2022-11-22T14:40:09.308Z,10.05
2022-11-22T14:42:36.082Z,10.63
2022-11-22T14:45:12.673Z,10.43
2022-11-22T14:47:53.209Z,12.57
2022-11-22T14:50:37.340Z,12.48
2022-11-22T14:53:18.501Z,11.85
2022-11-22T14:55:46.053Z,11.73
2022-11-22T14:58:18.645Z,11.73
2022-11-22T15:00:45.195Z,12.68
2022-11-22T15:03:44.372Z,12.02
2022-11-22T15:09:15.366Z,12.43
2022-11-22T15:12:24.946Z,15.73
2022-11-22T15:59:41.373Z,12.55
2022-11-22T16:02:20.593Z,13.20
2022-11-22T16:06:07.338Z,11.80
2022-11-22T16:07:43.521Z,13.27
2022-11-22T16:10:16.057Z,12.93
2022-11-22T16:12:42.822Z,13.63
2022-11-22T16:15:36.319Z,11.90
2022-11-22T16:18:12.988Z,12.50
2022-11-22T16:20:41.055Z,11.05
2022-11-22T16:23:10.466Z,12.98
2022-11-22T16:25:38.982Z,14.38
2022-11-22T16:28:31.560Z,11.60
2022-11-22T16:31:01.350Z,12.95
2022-11-22T16:33:28.016Z,11.75
2022-11-22T16:35:56.434Z,13.38
2022-11-22T16:38:24.072Z,12.65
2022-11-22T16:40:51.445Z,14.38
2022-11-22T16:43:23.196Z,12.45
2022-11-22T16:45:50.988Z,12.10
2022-11-22T16:48:33.476Z,11.15
2022-11-22T16:51:11.804Z,12.40
2022-11-22T16:53:43.047Z,11.68
2022-11-22T16:56:17.756Z,12.65
2022-11-22T16:58:44.777Z,12.45
2022-11-22T17:01:17.021Z,12.40
2022-11-22T17:03:45.919Z,11.05
2022-11-22T17:06:18.694Z,13.93
2022-11-22T17:08:46.904Z,15.05
2022-11-22T17:11:16.181Z,13.65
2022-11-22T17:13:43.304Z,14.73
2022-11-22T17:16:11.107Z,13.82
2022-11-22T17:18:38.598Z,12.48
2022-11-22T17:21:23.939Z,13.25
2022-11-22T17:23:51.313Z,11.15
2022-11-22T17:26:17.859Z,11.70
2022-11-22T17:28:44.696Z,11.07
2022-11-22T17:31:17.304Z,12.48
2022-11-22T17:33:44.073Z,11.77
2022-11-22T17:36:29.110Z,12.38
2022-11-22T17:38:56.928Z,10.30
2022-11-22T17:41:24.028Z,12.55
2022-11-22T17:43:51.661Z,10.30
2022-11-22T17:46:19.111Z,10.40
2022-11-22T17:48:59.977Z,14.38
2022-11-22T17:51:28.725Z,11.55
2022-11-22T17:53:58.160Z,12.48
2022-11-22T17:56:29.012Z,12.15
2022-11-22T17:58:55.548Z,13.88
2022-11-22T18:01:22.922Z,10.95
2022-11-22T18:03:50.093Z,11.98
2022-11-22T18:06:17.919Z,12.10
2022-11-22T18:08:47.269Z,21.08
2022-11-22T18:11:15.127Z,16.45
2022-11-22T18:13:41.835Z,22.55
2022-11-22T18:16:13.658Z,14.75
2022-11-22T18:18:57.437Z,17.05
2022-11-22T18:21:25.470Z,16.48
2022-11-22T18:23:52.160Z,15.85
2022-11-22T18:31:53.834Z,14.57
2022-11-22T18:34:21.871Z,13.20
2022-11-22T18:36:55.421Z,12.40
2022-11-22T18:39:22.994Z,13.38
2022-11-22T18:41:49.582Z,12.75
2022-11-22T18:44:16.167Z,11.93
2022-11-22T18:46:42.801Z,10.32
2022-11-22T18:49:09.939Z,9.57
2022-11-22T18:51:36.557Z,14.23
2022-11-22T18:54:03.264Z,12.85
2022-11-22T18:56:29.949Z,10.15
2022-11-22T18:58:56.593Z,12.65
2022-11-22T19:01:24.093Z,11.48
2022-11-22T19:03:50.685Z,12.32
2022-11-22T19:06:18.915Z,12.85
2022-11-22T19:08:46.755Z,11.15
2022-11-22T19:11:13.555Z,11.20
2022-11-22T19:13:42.357Z,13.13
2022-11-22T19:16:09.181Z,13.63
2022-11-22T19:18:41.279Z,10.20
2022-11-22T19:21:30.088Z,12.40
2022-11-22T19:23:57.012Z,11.75
2022-11-22T19:26:26.480Z,12.18
2022-11-22T19:28:56.282Z,11.18
2022-11-22T19:31:25.652Z,12.10
2022-11-22T19:33:52.370Z,11.52
2022-11-22T19:36:22.307Z,10.20
2022-11-22T19:38:51.257Z,9.63
2022-11-22T19:41:20.149Z,9.73
2022-11-22T19:43:48.203Z,10.05
2022-11-22T19:46:15.081Z,12.75
2022-11-22T19:48:46.974Z,11.45
2022-11-22T19:51:15.613Z,10.50
2022-11-22T19:53:42.662Z,8.55
2022-11-22T19:56:18.353Z,10.50
2022-11-22T19:58:50.737Z,9.63
2022-11-22T20:01:18.105Z,8.85
2022-11-22T20:03:45.101Z,9.38
2022-11-22T20:06:13.479Z,9.82
2022-11-22T20:08:40.083Z,11.30
2022-11-22T20:11:11.785Z,10.65
2022-11-22T20:13:41.427Z,10.77
2022-11-22T20:16:09.323Z,7.97
2022-11-22T20:18:35.911Z,8.25
2022-11-22T20:21:04.470Z,10.80
2022-11-22T20:23:32.098Z,7.25
2022-11-22T20:26:06.727Z,8.23
2022-11-22T20:28:33.286Z,6.82
2022-11-22T20:31:11.181Z,10.13
2022-11-22T20:33:40.657Z,9.68
2022-11-22T20:36:18.748Z,8.85
2022-11-22T20:38:46.436Z,7.82
2022-11-22T20:41:14.675Z,10.23
2022-11-22T20:43:41.510Z,9.23
2022-11-22T20:46:10.708Z,8.70
2022-11-22T20:48:38.693Z,8.88
2022-11-22T20:51:08.857Z,9.82
2022-11-22T20:53:35.985Z,8.25
2022-11-22T20:56:03.501Z,8.63
2022-11-22T20:58:30.334Z,9.48
2022-11-22T21:00:57.105Z,10.43
2022-11-22T21:03:24.738Z,9.38
2022-11-22T21:05:55.650Z,6.00
2022-11-22T21:08:23.130Z,7.38
2022-11-22T21:10:49.977Z,8.77
2022-11-22T21:13:16.969Z,6.45
2022-11-22T21:15:43.747Z,6.15
2022-11-22T21:18:25.283Z,7.53
2022-11-22T21:20:52.638Z,6.68
2022-11-22T21:23:19.264Z,9.20
2022-11-22T21:25:46.417Z,8.05
2022-11-22T21:28:13.132Z,8.75
2022-11-22T21:30:39.683Z,8.45
2022-11-22T21:33:06.227Z,6.82
2022-11-22T21:35:32.869Z,7.72
2022-11-22T21:37:59.440Z,8.80
2022-11-22T21:40:26.012Z,9.30
2022-11-22T21:42:52.572Z,7.90
2022-11-22T21:45:19.093Z,7.93
2022-11-22T21:47:48.240Z,8.75
2022-11-22T21:50:15.488Z,7.47
2022-11-22T21:52:42.479Z,7.53
2022-11-22T21:55:09.765Z,7.47
2022-11-22T21:57:36.379Z,8.10
2022-11-22T22:00:04.905Z,7.05
2022-11-22T22:02:32.973Z,6.70
2022-11-22T22:04:59.609Z,7.07
2022-11-22T22:07:55.206Z,8.50
2022-11-22T22:10:14.183Z,7.72
2022-11-22T22:12:41.277Z,6.00
2022-11-22T22:15:10.704Z,6.68
2022-11-22T22:17:37.297Z,6.93
2022-11-22T22:20:04.377Z,6.80
2022-11-22T22:22:30.882Z,9.02
2022-11-22T22:24:57.457Z,9.50
2022-11-22T22:27:23.975Z,5.78
2022-11-22T22:29:50.504Z,7.35
2022-11-22T22:32:17.080Z,7.30
2022-11-22T22:34:43.608Z,7.80
2022-11-22T22:37:10.170Z,6.85
2022-11-22T22:39:36.756Z,7.45
2022-11-22T22:42:03.307Z,7.93
2022-11-22T22:44:29.876Z,7.30
2022-11-22T22:46:56.445Z,7.38
2022-11-22T22:49:22.958Z,7.28
2022-11-22T22:51:51.430Z,6.68
2022-11-22T22:54:18.217Z,8.73
2022-11-22T22:56:45.020Z,9.07
2022-11-22T22:59:11.543Z,5.70
2022-11-22T23:01:38.154Z,6.90
2022-11-22T23:04:05.005Z,9.65
2022-11-22T23:06:35.046Z,6.63
2022-11-22T23:09:03.818Z,8.25
2022-11-22T23:11:50.698Z,9.27
2022-11-22T23:14:25.341Z,8.13
2022-11-22T23:16:57.278Z,8.95
2022-11-22T23:19:25.343Z,7.53
2022-11-22T23:21:51.929Z,8.88
2022-11-22T23:24:18.746Z,10.40
2022-11-22T23:26:45.312Z,7.35
2022-11-22T23:29:12.261Z,12.32
2022-11-22T23:31:38.777Z,8.80
2022-11-22T23:34:05.330Z,8.15
2022-11-22T23:36:35.960Z,8.32
2022-11-22T23:39:05.748Z,8.48
2022-11-22T23:41:32.364Z,9.82
2022-11-22T23:43:58.891Z,7.93
2022-11-22T23:46:28.734Z,8.82
2022-11-22T23:48:57.963Z,8.02
2022-11-22T23:51:25.612Z,9.98
2022-11-22T23:54:02.649Z,7.78
2022-11-22T23:56:31.248Z,8.50
2022-11-22T23:59:02.195Z,8.10
